createdAt,value
2023-01-11T00:04:47.326Z,100232.50
2023-01-11T00:09:50.710Z,100230.62
2023-01-11T00:14:53.437Z,100232.52
2023-01-11T00:19:56.666Z,100237.02
2023-01-11T00:24:59.677Z,100238.21
2023-01-11T00:30:03.190Z,100241.20
2023-01-11T00:35:06.777Z,100239.14
2023-01-11T00:40:09.956Z,100236.68
2023-01-11T00:45:31.987Z,100231.95
2023-01-11T00:50:38.763Z,100242.31
2023-01-11T00:55:42.524Z,100250.20
2023-01-11T01:00:45.243Z,100256.31
2023-01-11T01:05:47.992Z,100251.30
2023-01-11T01:10:52.701Z,100258.97
2023-01-11T01:16:00.123Z,100260.99
2023-01-11T01:21:03.009Z,100252.85
2023-01-11T01:26:06.312Z,100244.77
2023-01-11T01:31:09.242Z,100241.41
2023-01-11T01:36:12.282Z,100234.39
2023-01-11T01:41:14.640Z,100237.46
2023-01-11T01:46:18.334Z,100233.44
2023-01-11T01:51:31.511Z,100225.48
2023-01-11T01:56:46.076Z,100216.91
2023-01-11T02:01:50.630Z,100207.79
2023-01-11T02:07:03.500Z,100200.47
2023-01-11T02:12:07.037Z,100201.73
2023-01-11T02:17:10.707Z,100208.91
2023-01-11T02:22:35.977Z,100212.70
2023-01-11T02:27:57.644Z,100208.52
2023-01-11T02:33:34.593Z,100202.98
2023-01-11T02:38:55.924Z,100206.26
2023-01-11T02:44:43.801Z,100216.99
2023-01-11T02:50:04.139Z,100212.62
2023-01-11T02:55:10.434Z,100221.02
2023-01-11T03:00:17.673Z,100220.27
2023-01-11T03:05:20.915Z,100225.20
2023-01-11T03:10:50.424Z,100218.72
2023-01-11T03:16:08.747Z,100220.30
2023-01-11T03:21:25.230Z,100217.13
2023-01-11T03:26:46.232Z,100210.42
2023-01-11T03:32:00.509Z,100204.10
2023-01-11T03:37:16.304Z,100199.38
2023-01-11T03:42:24.416Z,100203.14
2023-01-11T03:47:30.884Z,100198.89
2023-01-11T03:52:42.220Z,100196.48
2023-01-11T03:57:52.789Z,100191.30
2023-01-11T04:02:56.205Z,100195.09
2023-01-11T04:07:58.835Z,100184.30
2023-01-11T04:13:03.633Z,100175.17
2023-01-11T04:18:06.783Z,100169.27
2023-01-11T04:23:12.627Z,100169.02
2023-01-11T04:28:17.205Z,100167.73
2023-01-11T04:33:20.337Z,100166.50
2023-01-11T04:38:25.863Z,100166.17
2023-01-11T04:43:29.247Z,100164.88
2023-01-11T04:48:33.744Z,100163.98
2023-01-11T04:53:36.461Z,100161.94
2023-01-11T04:58:39.262Z,100158.52
2023-01-11T05:03:42.579Z,100156.98
2023-01-11T05:08:47.422Z,100156.65
2023-01-11T05:13:50.953Z,100159.70
2023-01-11T05:18:56.335Z,100160.77
2023-01-11T05:24:01.819Z,100158.84
2023-01-11T05:29:08.764Z,100146.58
2023-01-11T05:34:14.692Z,100139.40
2023-01-11T05:39:16.673Z,100137.80
2023-01-11T05:44:39.041Z,100136.36
2023-01-11T05:49:43.718Z,100134.21
2023-01-11T05:54:47.085Z,100131.47
2023-01-11T05:59:50.255Z,100123.90
2023-01-11T06:04:55.463Z,100122.48
2023-01-11T06:09:59.872Z,100120.59
2023-01-11T06:15:03.203Z,100119.81
2023-01-11T06:20:07.736Z,100109.92
2023-01-11T06:25:11.737Z,100103.71
2023-01-11T06:30:16.256Z,100100.50
2023-01-11T06:35:20.352Z,100097.97
2023-01-11T06:40:24.298Z,100093.20
2023-01-11T06:45:27.644Z,100090.92
2023-01-11T06:50:32.555Z,100092.99
2023-01-11T06:55:36.492Z,100094.35
2023-01-11T07:00:39.632Z,100091.45
2023-01-11T07:05:44.359Z,100085.51
2023-01-11T07:10:49.069Z,100087.88
2023-01-11T07:15:54.102Z,100080.34
2023-01-11T07:20:57.308Z,100082.80
2023-01-11T07:26:01.061Z,100080.62
2023-01-11T07:31:05.328Z,100074.95
2023-01-11T07:36:08.926Z,100066.56
2023-01-11T07:41:30.175Z,100070.58
2023-01-11T07:46:32.490Z,100082.45
2023-01-11T07:51:35.139Z,100082.50
2023-01-11T07:56:39.257Z,100085.98
2023-01-11T08:01:41.821Z,100087.70
2023-01-11T08:06:46.808Z,100087.60
2023-01-11T08:12:09.820Z,100080.00
2023-01-11T08:17:16.663Z,100077.52
2023-01-11T08:22:19.442Z,100076.23
2023-01-11T08:27:21.729Z,100072.69
2023-01-11T08:32:28.890Z,100075.71
2023-01-11T08:37:32.688Z,100077.19
2023-01-11T08:42:35.726Z,100071.25
2023-01-11T08:47:38.727Z,100058.98
2023-01-11T08:52:43.584Z,100057.57
2023-01-11T08:57:47.903Z,100057.78
2023-01-11T09:02:51.129Z,100057.01
2023-01-11T09:07:58.314Z,100048.38
2023-01-11T09:13:00.897Z,100058.97
2023-01-11T09:18:03.098Z,100055.91
2023-01-11T09:23:06.924Z,100053.98
2023-01-11T09:28:10.150Z,100047.02
2023-01-11T09:33:13.161Z,100033.52
2023-01-11T09:38:16.870Z,100024.18
2023-01-11T09:43:25.789Z,100013.05
2023-01-11T09:48:43.898Z,100002.54
2023-01-11T09:54:11.707Z,99999.70
2023-01-11T09:59:47.090Z,99993.56
2023-01-11T10:05:24.220Z,99993.61
2023-01-11T10:18:26.392Z,99976.80
2023-01-11T10:22:36.781Z,99971.85
2023-01-11T10:27:49.777Z,99971.11
2023-01-11T10:32:57.073Z,99962.58
2023-01-11T10:38:38.360Z,99961.55
2023-01-11T10:43:55.785Z,99950.44
2023-01-11T10:49:37.723Z,99950.48
2023-01-11T10:54:46.829Z,99943.15
2023-01-11T11:00:09.280Z,99937.89
2023-01-11T11:05:24.699Z,99935.61
2023-01-11T11:10:37.175Z,99931.75
2023-01-11T11:16:06.189Z,99933.59
2023-01-11T11:21:23.972Z,99921.33
2023-01-11T11:26:30.091Z,99914.19
2023-01-11T11:31:36.727Z,99907.02
2023-01-11T11:36:44.917Z,99891.79
2023-01-11T11:41:58.330Z,99890.52
2023-01-11T11:47:18.873Z,99875.64
2023-01-11T11:52:23.207Z,99854.21
2023-01-11T11:57:33.955Z,99840.23
2023-01-11T12:02:50.404Z,99829.02
2023-01-11T12:07:55.836Z,99815.83
2023-01-11T12:13:02.483Z,99800.84
2023-01-11T12:18:27.097Z,99795.91
2023-01-11T12:23:31.426Z,99786.38
2023-01-11T12:28:53.032Z,99779.54
2023-01-11T12:34:10.602Z,99772.29
2023-01-11T12:39:37.193Z,99762.06
2023-01-11T12:44:48.908Z,99749.81
2023-01-11T12:50:31.515Z,99740.52
2023-01-11T12:55:47.068Z,99739.27
2023-01-11T13:01:08.635Z,99723.70
2023-01-11T13:06:46.287Z,99716.30
2023-01-11T13:12:05.121Z,99709.64
2023-01-11T13:17:36.978Z,99714.62
2023-01-11T13:22:45.337Z,99707.09
2023-01-11T13:27:52.968Z,99706.08
2023-01-11T13:33:08.319Z,99702.01
2023-01-11T13:38:34.835Z,99698.01
2023-01-11T13:44:00.204Z,99697.36
2023-01-11T13:49:25.925Z,99700.25
2023-01-11T13:54:29.648Z,99699.91
2023-01-11T13:59:46.742Z,99707.34
2023-01-11T14:04:59.623Z,99703.34
2023-01-11T14:10:36.175Z,99700.61
2023-01-11T14:16:19.128Z,99705.31
2023-01-11T14:21:37.856Z,99703.10
2023-01-11T14:27:07.992Z,99702.58
2023-01-11T14:32:39.379Z,99700.17
2023-01-11T14:37:41.684Z,99699.88
2023-01-11T14:42:50.682Z,99690.76
2023-01-11T14:48:02.831Z,99692.27
2023-01-11T14:53:09.587Z,99684.54
2023-01-11T14:58:18.749Z,99679.33
2023-01-11T15:03:22.978Z,99669.57
2023-01-11T15:08:44.961Z,99670.45
2023-01-11T15:13:57.997Z,99678.88
2023-01-11T15:19:09.127Z,99673.05
2023-01-11T15:24:30.458Z,99667.23
2023-01-11T15:29:40.559Z,99657.06
2023-01-11T15:34:48.692Z,99652.36
2023-01-11T15:39:59.545Z,99647.60
2023-01-11T15:45:22.164Z,99642.23
2023-01-11T15:50:48.185Z,99644.54
2023-01-11T15:56:18.907Z,99642.02
2023-01-11T16:01:26.350Z,99628.01
2023-01-11T16:06:36.355Z,99622.77
2023-01-11T16:12:11.854Z,99620.23
2023-01-11T16:17:20.976Z,99615.50
2023-01-11T16:22:27.929Z,99613.95
2023-01-11T16:27:36.900Z,99603.86
2023-01-11T16:32:39.337Z,99600.30
2023-01-11T16:37:53.598Z,99590.69
2023-01-11T16:43:09.638Z,99592.64
2023-01-11T16:48:21.397Z,99592.46
2023-01-11T16:53:33.070Z,99593.03
2023-01-11T16:58:44.417Z,99591.83
2023-01-11T17:04:00.182Z,99589.38
2023-01-11T17:09:20.147Z,99585.22
2023-01-11T17:14:38.071Z,99579.77
2023-01-11T17:19:52.520Z,99577.30
2023-01-11T17:25:07.135Z,99580.52
2023-01-11T17:30:24.822Z,99585.35
2023-01-11T17:35:44.189Z,99586.83
2023-01-11T17:40:49.441Z,99580.82
2023-01-11T17:46:02.476Z,99583.34
2023-01-11T17:51:25.815Z,99585.91
2023-01-11T17:56:43.145Z,99578.19
2023-01-11T18:01:54.479Z,99574.73
2023-01-11T18:07:20.010Z,99577.56
2023-01-11T18:12:37.134Z,99567.69
2023-01-11T18:17:42.766Z,99567.73
2023-01-11T18:23:04.722Z,99565.76
2023-01-11T18:28:30.349Z,99560.25
2023-01-11T18:33:34.776Z,99558.84
2023-01-11T18:38:37.879Z,99559.88
2023-01-11T18:43:43.970Z,99560.29
2023-01-11T18:48:49.966Z,99558.09
2023-01-11T18:53:55.632Z,99552.77
2023-01-11T18:58:58.558Z,99550.24
2023-01-11T19:04:01.788Z,99548.39
2023-01-11T19:09:05.824Z,99551.00
2023-01-11T19:14:10.174Z,99559.39
2023-01-11T19:19:14.999Z,99556.34
2023-01-11T19:24:19.630Z,99551.48
2023-01-11T19:29:26.396Z,99549.17
2023-01-11T19:34:35.522Z,99552.24
2023-01-11T19:39:40.939Z,99556.23
2023-01-11T19:44:44.056Z,99560.21
2023-01-11T19:49:48.227Z,99558.30
2023-01-11T19:54:55.514Z,99555.59
2023-01-11T20:00:00.322Z,99551.95
2023-01-11T20:05:07.586Z,99550.82
2023-01-11T20:10:12.621Z,99550.98
2023-01-11T20:15:17.586Z,99546.90
2023-01-11T20:20:23.110Z,99547.50
2023-01-11T20:25:27.866Z,99550.30
2023-01-11T20:30:31.985Z,99552.63
2023-01-11T20:35:35.308Z,99558.92
2023-01-11T20:40:39.700Z,99562.16
2023-01-11T20:45:43.925Z,99555.91
2023-01-11T20:50:47.684Z,99558.10
2023-01-11T20:55:51.077Z,99559.74
2023-01-11T21:00:54.240Z,99561.25
2023-01-11T21:05:57.855Z,99560.73
2023-01-11T21:11:11.631Z,99561.70
2023-01-11T21:16:16.040Z,99564.20
2023-01-11T21:21:19.564Z,99560.27
2023-01-11T21:26:21.885Z,99557.72
2023-01-11T21:31:24.918Z,99556.75
2023-01-11T21:36:30.517Z,99559.51
2023-01-11T21:41:53.940Z,99559.87
2023-01-11T21:46:56.958Z,99561.90
2023-01-11T21:52:00.207Z,99566.45
2023-01-11T21:57:03.407Z,99571.60
2023-01-11T22:02:06.438Z,99581.19
2023-01-11T22:07:09.559Z,99584.60
2023-01-11T22:12:12.187Z,99590.79
2023-01-11T22:17:15.035Z,99590.54
2023-01-11T22:22:17.621Z,99586.19
2023-01-11T22:27:20.550Z,99593.05
2023-01-11T22:32:24.748Z,99589.38
2023-01-11T22:37:28.986Z,99604.03
2023-01-11T22:42:32.210Z,99598.37
2023-01-11T22:47:36.699Z,99602.83
2023-01-11T22:52:40.302Z,99604.18
2023-01-11T22:57:43.520Z,99601.08
2023-01-11T23:02:47.089Z,99604.91
2023-01-11T23:07:50.695Z,99601.56
2023-01-11T23:13:12.494Z,99597.76
2023-01-11T23:18:16.128Z,99597.04
2023-01-11T23:23:19.674Z,99599.55
2023-01-11T23:28:23.030Z,99602.71
2023-01-11T23:33:26.991Z,99605.35
2023-01-11T23:38:33.334Z,99600.05
2023-01-11T23:43:38.819Z,99602.20
2023-01-11T23:48:40.973Z,99607.73
2023-01-11T23:53:43.828Z,99606.92
2023-01-11T23:58:46.860Z,99613.34
